Time,TemperatureF,DewpointF,PressureIn,WindDirection,WindDirectionDegrees,WindSpeedMPH,WindSpeedGustMPH,Humidity,HourlyPrecipIn,Conditions,Clouds,dailyrainin,SoftwareType,DateUTC
2013-05-03 00:11:00,67.0,30.0,-100.00,North,-999,-999.0,-999.0,25,-99.99,,,0.00,,2013-05-03 07:11:00,
2013-05-03 00:21:00,67.0,30.0,-100.00,North,-999,-999.0,-999.0,25,-99.99,,,0.00,,2013-05-03 07:21:00,
2013-05-03 00:31:00,67.0,30.0,-100.00,North,-999,-999.0,-999.0,25,-99.99,,,0.00,,2013-05-03 07:31:00,
2013-05-03 00:42:00,67.0,30.0,-100.00,North,-999,-999.0,-999.0,25,-99.99,,,0.00,,2013-05-03 07:42:00,
2013-05-03 02:11:00,62.0,36.0,-100.00,North,-999,-999.0,-999.0,38,-99.99,,,-99.99,,2013-05-03 09:11:00,
2013-05-03 02:21:00,62.0,36.0,-100.00,North,-999,-999.0,-999.0,38,-99.99,,,-99.99,,2013-05-03 09:21:00,
2013-05-03 02:32:00,62.0,36.0,-100.00,North,-999,-999.0,-999.0,38,-99.99,,,-99.99,,2013-05-03 09:32:00,
2013-05-03 02:42:00,62.0,36.0,-100.00,North,-999,-999.0,-999.0,38,-99.99,,,-99.99,,2013-05-03 09:42:00,
2013-05-03 03:12:00,61.0,36.0,-100.00,North,-999,-999.0,-999.0,40,0.00,,,0.00,,2013-05-03 10:12:00,
2013-05-03 03:22:00,61.0,36.0,-100.00,North,-999,-999.0,-999.0,40,0.00,,,0.00,,2013-05-03 10:22:00,
2013-05-03 03:32:00,61.0,36.0,-100.00,North,-999,-999.0,-999.0,40,0.00,,,0.00,,2013-05-03 10:32:00,
2013-05-03 03:42:00,61.0,36.0,-100.00,North,-999,-999.0,-999.0,40,0.00,,,0.00,,2013-05-03 10:42:00,
2013-05-03 04:11:00,59.0,41.0,-100.00,North,-999,-999.0,-999.0,52,0.00,,,0.00,,2013-05-03 11:11:00,
2013-05-03 04:22:00,59.0,41.0,-100.00,North,-999,-999.0,-999.0,52,0.00,,,0.00,,2013-05-03 11:22:00,
2013-05-03 04:31:00,59.0,41.0,-100.00,North,-999,-999.0,-999.0,52,0.00,,,0.00,,2013-05-03 11:31:00,
2013-05-03 04:41:00,59.0,41.0,-100.00,North,-999,-999.0,-999.0,52,0.00,,,0.00,,2013-05-03 11:41:00,
2013-05-03 05:11:00,58.0,42.0,-100.00,North,-999,-999.0,-999.0,56,0.00,,,0.00,,2013-05-03 12:11:00,
2013-05-03 05:21:00,58.0,42.0,-100.00,North,-999,-999.0,-999.0,56,0.00,,,0.00,,2013-05-03 12:21:00,
2013-05-03 05:32:00,58.0,42.0,-100.00,North,-999,-999.0,-999.0,56,0.00,,,0.00,,2013-05-03 12:32:00,
2013-05-03 05:41:00,58.0,42.0,-100.00,North,-999,-999.0,-999.0,56,0.00,,,0.00,,2013-05-03 12:41:00,
2013-05-03 06:11:00,55.0,46.0,-100.00,North,-999,-999.0,-999.0,71,0.00,,,-99.99,,2013-05-03 13:11:00,
2013-05-03 06:22:00,55.0,46.0,-100.00,North,-999,-999.0,-999.0,71,0.00,,,-99.99,,2013-05-03 13:22:00,
2013-05-03 06:32:00,55.0,46.0,-100.00,North,-999,-999.0,-999.0,71,0.00,,,-99.99,,2013-05-03 13:32:00,
2013-05-03 06:42:00,55.0,46.0,-100.00,North,-999,-999.0,-999.0,71,0.00,,,-99.99,,2013-05-03 13:42:00,
2013-05-03 07:11:00,55.0,48.0,-100.00,North,-999,-999.0,-999.0,77,0.00,,,0.00,,2013-05-03 14:11:00,
2013-05-03 07:21:00,55.0,48.0,-100.00,North,-999,-999.0,-999.0,77,0.00,,,0.00,,2013-05-03 14:21:00,
2013-05-03 07:32:00,55.0,48.0,-100.00,North,-999,-999.0,-999.0,77,0.00,,,0.00,,2013-05-03 14:32:00,
2013-05-03 07:42:00,55.0,48.0,-100.00,North,-999,-999.0,-999.0,77,0.00,,,0.00,,2013-05-03 14:42:00,
2013-05-03 07:43:00,58.0,47.0,-100.00,North,-999,-999.0,-999.0,67,0.00,,,0.00,,2013-05-03 14:43:00,
2013-05-03 08:11:00,58.0,47.0,-100.00,North,-999,-999.0,-999.0,67,0.00,,,0.00,,2013-05-03 15:11:00,
2013-05-03 08:22:00,58.0,47.0,-100.00,North,-999,-999.0,-999.0,67,0.00,,,0.00,,2013-05-03 15:22:00,
2013-05-03 08:32:00,58.0,47.0,-100.00,North,-999,-999.0,-999.0,67,0.00,,,0.00,,2013-05-03 15:32:00,
2013-05-03 09:12:00,65.0,45.0,-100.00,North,-999,-999.0,-999.0,48,0.00,,,0.00,,2013-05-03 16:12:00,
2013-05-03 09:42:00,65.0,45.0,-100.00,North,-999,-999.0,-999.0,48,0.00,,,0.00,,2013-05-03 16:42:00,
2013-05-03 10:12:00,70.0,44.0,-100.00,North,-999,-999.0,-999.0,40,-99.99,,,0.00,,2013-05-03 17:12:00,
2013-05-03 11:12:00,73.0,40.0,-100.00,North,-999,-999.0,-999.0,30,-99.99,,,0.00,,2013-05-03 18:12:00,
2013-05-03 11:21:00,73.0,40.0,-100.00,North,-999,-999.0,-999.0,30,-99.99,,,0.00,,2013-05-03 18:21:00,
2013-05-03 12:11:00,76.0,43.0,-100.00,North,-999,-999.0,-999.0,31,-99.99,,,0.00,,2013-05-03 19:11:00,
2013-05-03 12:21:00,76.0,43.0,-100.00,North,-999,-999.0,-999.0,31,-99.99,,,0.00,,2013-05-03 19:21:00,
2013-05-03 12:32:00,76.0,43.0,-100.00,North,-999,-999.0,-999.0,31,-99.99,,,0.00,,2013-05-03 19:32:00,
2013-05-03 13:11:00,78.0,43.0,-100.00,North,-999,-999.0,-999.0,29,-99.99,,,-99.99,,2013-05-03 20:11:00,
2013-05-03 13:21:00,78.0,43.0,-100.00,North,-999,-999.0,-999.0,29,-99.99,,,-99.99,,2013-05-03 20:21:00,
2013-05-03 14:11:00,76.0,39.0,-100.00,North,-999,-999.0,-999.0,26,-99.99,,,0.00,,2013-05-03 21:11:00,
2013-05-03 14:21:00,76.0,39.0,-100.00,North,-999,-999.0,-999.0,26,-99.99,,,0.00,,2013-05-03 21:21:00,
2013-05-03 14:33:00,76.0,39.0,-100.00,North,-999,-999.0,-999.0,26,-99.99,,,0.00,,2013-05-03 21:33:00,
2013-05-03 15:12:00,77.0,38.0,-100.00,North,-999,-999.0,-999.0,24,0.00,,,0.00,,2013-05-03 22:12:00,
2013-05-03 15:22:00,77.0,38.0,-100.00,North,-999,-999.0,-999.0,24,0.00,,,0.00,,2013-05-03 22:22:00,
2013-05-03 15:32:00,77.0,38.0,-100.00,North,-999,-999.0,-999.0,24,0.00,,,0.00,,2013-05-03 22:32:00,
2013-05-03 18:11:00,69.0,39.0,-100.00,North,-999,-999.0,-999.0,34,-99.99,,,0.00,,2013-05-04 01:11:00,
2013-05-03 18:21:00,69.0,39.0,-100.00,North,-999,-999.0,-999.0,34,-99.99,,,0.00,,2013-05-04 01:21:00,
2013-05-03 18:31:00,69.0,39.0,-100.00,North,-999,-999.0,-999.0,34,-99.99,,,0.00,,2013-05-04 01:31:00,
2013-05-03 18:41:00,69.0,39.0,-100.00,North,-999,-999.0,-999.0,34,-99.99,,,0.00,,2013-05-04 01:41:00,
2013-05-03 19:11:00,65.0,45.0,-100.00,North,-999,-999.0,-999.0,48,0.00,,,0.00,,2013-05-04 02:11:00,
2013-05-03 19:21:00,65.0,45.0,-100.00,North,-999,-999.0,-999.0,48,0.00,,,0.00,,2013-05-04 02:21:00,
2013-05-03 19:32:00,65.0,45.0,-100.00,North,-999,-999.0,-999.0,48,0.00,,,0.00,,2013-05-04 02:32:00,
2013-05-03 19:43:00,64.0,40.0,-100.00,North,-999,-999.0,-999.0,42,0.00,,,0.00,,2013-05-04 02:43:00,
2013-05-03 20:11:00,64.0,40.0,-100.00,North,-999,-999.0,-999.0,42,0.00,,,0.00,,2013-05-04 03:11:00,
2013-05-03 20:21:00,64.0,40.0,-100.00,North,-999,-999.0,-999.0,42,0.00,,,0.00,,2013-05-04 03:21:00,
2013-05-03 20:32:00,64.0,40.0,-100.00,North,-999,-999.0,-999.0,42,0.00,,,0.00,,2013-05-04 03:32:00,
2013-05-03 21:12:00,61.0,42.0,-100.00,North,-999,-999.0,-999.0,49,0.00,,,0.00,,2013-05-04 04:12:00,
2013-05-03 21:22:00,61.0,42.0,-100.00,North,-999,-999.0,-999.0,49,0.00,,,0.00,,2013-05-04 04:22:00,
2013-05-03 21:32:00,61.0,42.0,-100.00,North,-999,-999.0,-999.0,49,0.00,,,0.00,,2013-05-04 04:32:00,
2013-05-03 21:42:00,61.0,42.0,-100.00,North,-999,-999.0,-999.0,49,0.00,,,0.00,,2013-05-04 04:42:00,
2013-05-03 22:11:00,62.0,44.0,-100.00,North,-999,-999.0,-999.0,51,0.00,,,0.00,,2013-05-04 05:11:00,
2013-05-03 22:22:00,62.0,44.0,-100.00,North,-999,-999.0,-999.0,51,0.00,,,0.00,,2013-05-04 05:22:00,
2013-05-03 22:32:00,62.0,44.0,-100.00,North,-999,-999.0,-999.0,51,0.00,,,0.00,,2013-05-04 05:32:00,
2013-05-03 22:42:00,62.0,44.0,-100.00,North,-999,-999.0,-999.0,51,0.00,,,0.00,,2013-05-04 05:42:00,
2013-05-03 23:11:00,61.0,45.0,-100.00,North,-999,-999.0,-999.0,57,0.00,,,0.00,,2013-05-04 06:11:00,
2013-05-03 23:21:00,61.0,45.0,-100.00,North,-999,-999.0,-999.0,57,0.00,,,0.00,,2013-05-04 06:21:00,
2013-05-03 23:32:00,61.0,45.0,-100.00,North,-999,-999.0,-999.0,57,0.00,,,0.00,,2013-05-04 06:32:00,
2013-05-03 23:41:00,61.0,45.0,-100.00,North,-999,-999.0,-999.0,57,0.00,,,0.00,,2013-05-04 06:41:00,